Time;durP1;ratioP1;P1;durP2;ratioP2;P2;SDS_P1;SDS_P2;PMS_P1;PMS_P2;Temp;Humidity;BMP_temperature;BMP_pressure;BME280_temperature;BME280_humidity;BME280_pressure;Samples;Min_cycle;Max_cycle;Signal;HPM_P1;HPM_P2
2021/12/30 00:00:58;;;;;;;33.33;11.02;;;;;;;13.25;100.00;100701.88;5035943;28;20562;-73
2021/12/30 00:03:25;;;;;;;16.88;6.38;;;;;;;13.19;100.00;100695.22;5036947;28;20078;-72
2021/12/30 00:05:52;;;;;;;17.65;5.55;;;;;;;13.10;100.00;100709.59;5041338;28;20135;-74
2021/12/30 00:08:21;;;;;;;36.03;13.50;;;;;;;13.21;100.00;100717.78;5036241;28;20140;-73
2021/12/30 00:10:48;;;;;;;14.65;5.32;;;;;;;13.09;100.00;100724.66;5031103;28;20102;-73
2021/12/30 00:13:15;;;;;;;32.63;12.18;;;;;;;13.10;100.00;100717.94;5028044;28;20593;-73
2021/12/30 00:15:41;;;;;;;7.97;4.20;;;;;;;13.02;100.00;100712.88;5035907;28;20123;-74
2021/12/30 00:18:09;;;;;;;26.52;9.05;;;;;;;12.98;100.00;100707.31;5030471;28;20160;-75
2021/12/30 00:20:36;;;;;;;26.17;7.35;;;;;;;13.06;100.00;100716.41;5040465;28;20049;-75
2021/12/30 00:23:06;;;;;;;34.28;10.30;;;;;;;13.07;100.00;100705.63;5034697;28;20136;-75
2021/12/30 00:25:39;;;;;;;18.85;6.43;;;;;;;13.06;100.00;100719.94;5030352;28;20053;-75
2021/12/30 00:28:13;;;;;;;28.67;8.75;;;;;;;13.07;100.00;100723.50;5031658;28;20136;-75
2021/12/30 00:30:40;;;;;;;38.88;14.48;;;;;;;12.98;100.00;100746.19;5042696;28;20054;-74
2021/12/30 00:33:07;;;;;;;35.58;13.00;;;;;;;13.12;100.00;100721.06;5038161;28;20132;-78
2021/12/30 00:35:34;;;;;;;25.98;4.13;;;;;;;13.11;100.00;100735.38;5035518;28;20067;-74
2021/12/30 00:38:01;;;;;;;29.65;10.82;;;;;;;13.12;100.00;100731.41;5033202;28;20075;-72
2021/12/30 00:40:28;;;;;;;16.52;8.57;;;;;;;13.04;100.00;100739.03;5035562;28;20395;-73
2021/12/30 00:42:55;;;;;;;26.83;9.05;;;;;;;13.05;100.00;100737.81;5039450;28;20132;-72
2021/12/30 00:45:21;;;;;;;24.88;8.95;;;;;;;13.02;100.00;100744.19;5038235;28;20055;-73
2021/12/30 00:47:48;;;;;;;24.17;9.07;;;;;;;13.02;100.00;100740.66;5030904;28;20510;-74
2021/12/30 00:50:15;;;;;;;45.63;16.58;;;;;;;13.12;100.00;100734.97;5039106;28;20065;-75
2021/12/30 00:52:41;;;;;;;47.67;17.15;;;;;;;13.10;100.00;100737.38;5038270;28;20052;-75
2021/12/30 00:55:08;;;;;;;25.85;9.18;;;;;;;13.03;100.00;100743.78;5033525;28;20060;-73
2021/12/30 00:57:35;;;;;;;27.30;9.60;;;;;;;13.04;100.00;100750.91;5043527;28;20143;-73
2021/12/30 01:00:05;;;;;;;24.48;8.15;;;;;;;12.96;100.00;100757.72;5028208;28;20045;-74
2021/12/30 01:02:31;;;;;;;33.33;10.27;;;;;;;13.05;100.00;100785.03;5027720;28;20055;-74
2021/12/30 01:04:58;;;;;;;35.50;13.50;;;;;;;13.10;100.00;100776.28;5034016;28;20045;-74
2021/12/30 01:07:25;;;;;;;42.28;13.77;;;;;;;13.17;100.00;100767.06;5041513;28;20063;-74
2021/12/30 01:09:52;;;;;;;32.60;8.20;;;;;;;13.08;100.00;100775.88;5028852;28;20145;-74
2021/12/30 01:12:19;;;;;;;19.58;7.60;;;;;;;13.12;100.00;100768.28;5027202;28;20045;-74
2021/12/30 01:14:47;;;;;;;16.70;5.25;;;;;;;13.13;100.00;100777.44;5028860;28;20179;-74
2021/12/30 01:17:22;;;;;;;20.98;6.75;;;;;;;13.05;100.00;100776.69;5039843;28;20048;-73
2021/12/30 01:19:51;;;;;;;17.38;5.68;;;;;;;13.12;100.00;100773.84;5035717;28;20072;-73
2021/12/30 01:22:25;;;;;;;41.47;10.50;;;;;;;13.15;100.00;100775.00;5027440;28;20055;-73
2021/12/30 01:24:55;;;;;;;30.33;9.38;;;;;;;13.12;100.00;100776.63;5039717;28;20382;-73
2021/12/30 01:27:22;;;;;;;17.45;6.20;;;;;;;13.03;100.00;100779.88;5032874;28;20045;-73
2021/12/30 01:29:49;;;;;;;18.00;5.82;;;;;;;13.05;100.00;100798.94;5035774;28;20124;-74
2021/12/30 01:32:15;;;;;;;18.63;6.60;;;;;;;13.14;100.00;100790.09;5025669;28;20045;-73
2021/12/30 01:34:42;;;;;;;15.93;5.97;;;;;;;13.14;100.00;100802.03;5029194;28;20092;-73
2021/12/30 01:37:09;;;;;;;29.63;8.85;;;;;;;13.20;100.00;100808.72;5039182;28;20057;-74
2021/12/30 01:39:38;;;;;;;14.77;4.85;;;;;;;13.11;100.00;100813.16;5037503;28;20165;-73
2021/12/30 01:42:07;;;;;;;15.93;5.22;;;;;;;13.08;100.00;100825.88;5028873;28;20057;-73
2021/12/30 01:44:34;;;;;;;19.55;5.13;;;;;;;13.17;100.00;100826.19;5029802;28;20049;-73
2021/12/30 01:47:03;;;;;;;21.75;6.82;;;;;;;13.17;100.00;100826.19;5039220;28;20755;-74
2021/12/30 01:49:30;;;;;;;18.83;5.15;;;;;;;13.16;100.00;100841.28;5027961;28;20056;-74
2021/12/30 01:51:57;;;;;;;9.90;3.33;;;;;;;13.16;100.00;100824.59;5032557;28;20494;-73
2021/12/30 01:54:26;;;;;;;16.02;5.75;;;;;;;13.23;100.00;100827.31;5043470;28;20079;-73
2021/12/30 01:56:53;;;;;;;37.10;8.15;;;;;;;13.23;100.00;100830.09;5028344;28;20112;-73
2021/12/30 01:59:22;;;;;;;35.50;10.35;;;;;;;13.24;100.00;100814.22;5037506;28;20052;-73
2021/12/30 02:01:56;;;;;;;30.30;7.75;;;;;;;13.25;100.00;100824.13;5031538;28;20049;-74
2021/12/30 02:04:30;;;;;;;31.00;7.75;;;;;;;13.24;100.00;100814.22;5030242;28;20053;-74
2021/12/30 02:06:57;;;;;;;32.03;9.50;;;;;;;13.24;100.00;100814.22;5029595;28;20059;-73
2021/12/30 02:09:25;;;;;;;35.55;10.10;;;;;;;13.26;100.00;100811.81;5033001;28;20502;-74
2021/12/30 02:11:54;;;;;;;16.35;3.72;;;;;;;13.18;100.00;100821.41;5040223;28;20087;-74
2021/12/30 02:14:21;;;;;;;22.20;4.88;;;;;;;13.17;100.00;100815.09;5035617;28;20140;-75
2021/12/30 02:16:48;;;;;;;27.05;8.02;;;;;;;13.23;100.00;100804.31;5038743;28;20183;-73
2021/12/30 02:19:15;;;;;;;23.23;8.50;;;;;;;13.22;100.00;100805.53;5035523;28;20051;-76
2021/12/30 02:21:42;;;;;;;11.43;3.97;;;;;;;13.23;100.00;100820.97;5029352;28;20132;-75
2021/12/30 02:24:08;;;;;;;35.55;9.18;;;;;;;13.26;100.00;100817.38;5027235;28;20132;-76
2021/12/30 02:26:35;;;;;;;40.88;10.05;;;;;;;13.28;100.00;100817.75;5033382;28;20080;-75
2021/12/30 02:29:03;;;;;;;36.65;9.30;;;;;;;13.30;100.00;100818.94;5029112;28;20147;-74
2021/12/30 02:31:30;;;;;;;29.60;9.63;;;;;;;13.29;100.00;100817.34;5035622;28;20048;-77
2021/12/30 02:33:58;;;;;;;27.33;6.65;;;;;;;13.22;100.00;100836.09;5031955;28;20328;-75
2021/12/30 02:36:31;;;;;;;23.58;7.28;;;;;;;13.30;100.00;100843.94;5034750;28;20064;-74
2021/12/30 02:39:10;;;;;;;24.77;6.90;;;;;;;13.32;100.00;100835.16;5040333;28;20124;-73
2021/12/30 02:41:38;;;;;;;10.25;3.13;;;;;;;13.25;100.00;100827.69;5041205;28;20053;-74
2021/12/30 02:44:07;;;;;;;17.13;6.22;;;;;;;13.26;100.00;100829.28;5039322;28;20063;-73
2021/12/30 02:46:35;;;;;;;24.02;5.75;;;;;;;13.31;100.00;100825.25;5029375;28;20053;-74
2021/12/30 02:49:03;;;;;;;27.30;7.57;;;;;;;13.30;100.00;100820.91;5031513;28;20061;-74
2021/12/30 02:51:29;;;;;;;20.52;5.03;;;;;;;13.28;100.00;100821.31;5031571;28;20041;-75
2021/12/30 02:53:56;;;;;;;28.00;6.47;;;;;;;13.22;100.00;100836.84;5030551;28;20057;-74
2021/12/30 02:56:24;;;;;;;11.73;3.60;;;;;;;13.34;100.00;100827.22;5035800;28;20108;-74
2021/12/30 02:58:51;;;;;;;24.42;7.22;;;;;;;13.29;100.00;100814.56;5032704;28;20053;-75
2021/12/30 03:01:21;;;;;;;18.08;4.68;;;;;;;13.33;100.00;100817.31;5039511;28;20049;-74
2021/12/30 03:03:49;;;;;;;14.05;4.30;;;;;;;13.31;100.00;100823.28;5039584;28;20056;-74
2021/12/30 03:06:16;;;;;;;14.20;3.75;;;;;;;13.27;100.00;100841.97;5031545;28;20097;-75
2021/12/30 03:08:44;;;;;;;31.00;7.68;;;;;;;13.27;100.00;100849.53;5031353;28;20068;-74
2021/12/30 03:11:11;;;;;;;19.73;4.75;;;;;;;13.23;100.00;100830.09;5029819;28;20053;-74
2021/12/30 03:13:41;;;;;;;31.13;8.63;;;;;;;13.23;100.00;100834.88;5040135;28;20052;-74
2021/12/30 03:16:14;;;;;;;12.45;4.55;;;;;;;13.14;100.00;100848.44;5043631;28;20049;-75
2021/12/30 03:18:44;;;;;;;19.80;3.10;;;;;;;13.14;100.00;100854.81;5057687;28;20052;-74
2021/12/30 03:21:14;;;;;;;29.38;7.30;;;;;;;13.18;100.00;100851.97;5030018;28;20059;-74
2021/12/30 03:23:41;;;;;;;24.02;5.90;;;;;;;13.14;100.00;100856.78;5040337;28;20483;-74
2021/12/30 03:26:08;;;;;;;22.40;5.53;;;;;;;13.06;100.00;100858.81;5031503;28;20140;-75
2021/12/30 03:28:36;;;;;;;21.65;6.78;;;;;;;13.05;100.00;100851.69;5034563;28;20049;-74
2021/12/30 03:31:03;;;;;;;16.27;4.85;;;;;;;13.02;100.00;100852.53;5032027;28;20285;-75
2021/12/30 03:33:31;;;;;;;29.15;9.88;;;;;;;13.06;100.00;100850.50;5045859;28;20053;-74
2021/12/30 03:36:00;;;;;;;8.00;3.67;;;;;;;12.99;100.00;100847.78;5047244;28;20044;-74
2021/12/30 03:38:35;;;;;;;39.35;10.32;;;;;;;13.07;100.00;100845.75;5037945;28;20061;-75
2021/12/30 03:41:04;;;;;;;15.88;3.97;;;;;;;13.00;100.00;100852.16;5030571;28;20099;-74
2021/12/30 03:43:30;;;;;;;8.95;3.28;;;;;;;13.02;100.00;100852.53;5039054;28;20144;-74
2021/12/30 03:45:57;;;;;;;7.80;2.83;;;;;;;13.03;100.00;100854.13;5029224;28;20108;-74
2021/12/30 03:48:32;;;;;;;34.85;10.27;;;;;;;13.12;100.00;100857.19;5032281;28;20060;-74
2021/12/30 03:51:06;;;;;;;29.92;10.05;;;;;;;13.10;100.00;100865.16;5045699;28;20051;-73
2021/12/30 03:53:38;;;;;;;24.73;7.70;;;;;;;13.07;100.00;100862.41;5030814;28;20060;-74
2021/12/30 03:56:06;;;;;;;43.15;11.52;;;;;;;13.23;100.00;100860.66;5029208;28;20049;-74
2021/12/30 03:58:33;;;;;;;24.30;8.43;;;;;;;13.22;100.00;100867.41;5030400;28;20490;-74
2021/12/30 04:01:00;;;;;;;13.35;4.85;;;;;;;13.23;100.00;100871.75;5039331;28;20079;-75
2021/12/30 04:03:26;;;;;;;25.85;9.52;;;;;;;13.29;100.00;100869.34;5037793;28;20498;-74
2021/12/30 04:05:53;;;;;;;26.88;8.27;;;;;;;13.28;100.00;100860.22;5035770;28;20057;-74
2021/12/30 04:08:20;;;;;;;4.00;1.75;;;;;;;13.30;100.00;100865.38;5038812;28;20140;-75
2021/12/30 04:10:46;;;;;;;28.33;5.97;;;;;;;13.36;100.00;100866.50;5028814;28;20058;-74
2021/12/30 04:13:13;;;;;;;34.28;12.02;;;;;;;13.43;100.00;100858.88;5032200;28;20080;-74
2021/12/30 04:15:40;;;;;;;35.42;8.70;;;;;;;13.42;100.00;100870.41;5040262;28;20135;-74
2021/12/30 04:18:06;;;;;;;12.20;4.25;;;;;;;13.45;100.00;100859.25;5031160;28;20164;-73
2021/12/30 04:20:33;;;;;;;14.95;3.92;;;;;;;13.46;100.00;100858.03;5036989;28;20057;-75
2021/12/30 04:23:00;;;;;;;30.27;10.90;;;;;;;13.51;100.00;100860.38;5027440;28;20832;-75
2021/12/30 04:25:26;;;;;;;2.88;1.05;;;;;;;13.46;100.00;100866.38;5028797;28;20124;-75
2021/12/30 04:27:53;;;;;;;22.88;7.88;;;;;;;13.49;100.00;100867.53;5034670;28;20672;-75
2021/12/30 04:30:20;;;;;;;5.80;2.53;;;;;;;13.45;100.00;100870.38;5037478;28;20568;-74
2021/12/30 04:32:54;;;;;;;7.47;2.85;;;;;;;13.43;100.00;100867.19;5027904;28;20092;-72
2021/12/30 04:35:21;;;;;;;16.25;5.32;;;;;;;13.43;100.00;100863.66;5040963;28;20041;-74
2021/12/30 04:37:48;;;;;;;23.65;10.95;;;;;;;13.41;100.00;100872.41;5041241;28;20057;-74
2021/12/30 04:40:14;;;;;;;26.50;8.73;;;;;;;13.40;100.00;100865.25;5029074;28;20204;-75
2021/12/30 04:42:43;;;;;;;15.07;4.20;;;;;;;13.41;100.00;100864.06;5028392;28;20124;-74
2021/12/30 04:45:11;;;;;;;31.70;10.47;;;;;;;13.39;100.00;100855.34;5006274;28;1080314;-74
2021/12/30 04:47:39;;;;;;;16.35;5.47;;;;;;;13.39;100.00;100865.69;5049257;28;20290;-75
2021/12/30 04:50:12;;;;;;;12.65;5.47;;;;;;;13.34;100.00;100878.03;5049463;28;20052;-75
2021/12/30 04:52:41;;;;;;;27.08;12.75;;;;;;;13.43;100.00;100881.09;5044625;28;20137;-76
2021/12/30 04:55:09;;;;;;;21.13;9.10;;;;;;;13.42;100.00;100879.53;5032114;28;20089;-76
2021/12/30 04:57:35;;;;;;;17.58;5.60;;;;;;;13.36;100.00;100883.19;5034426;28;20128;-75
2021/12/30 05:00:09;;;;;;;23.65;9.43;;;;;;;13.37;100.00;100881.97;5033330;28;20391;-73
2021/12/30 05:02:59;;;;;;;34.00;11.90;;;;;;;13.37;100.00;100873.63;5040280;28;20082;-74
2021/12/30 05:05:22;;;;;;;33.72;12.15;;;;;;;13.40;100.00;100881.16;5048575;28;20239;-74
2021/12/30 05:07:49;;;;;;;28.85;10.40;;;;;;;13.41;100.00;100886.31;5044317;28;20059;-74
2021/12/30 05:10:15;;;;;;;24.90;8.38;;;;;;;13.42;100.00;100884.28;5028609;28;20057;-74
2021/12/30 05:12:42;;;;;;;12.50;4.70;;;;;;;13.43;100.00;100883.13;5039519;28;20041;-74
2021/12/30 05:15:09;;;;;;;30.27;9.90;;;;;;;13.43;100.00;100883.88;5044712;28;20048;-74
2021/12/30 05:17:36;;;;;;;22.73;7.10;;;;;;;13.42;100.00;100885.09;5034029;28;20056;-75
2021/12/30 05:20:03;;;;;;;10.60;4.15;;;;;;;13.42;100.00;100889.84;5027638;28;20056;-74
2021/12/30 05:22:30;;;;;;;24.40;8.77;;;;;;;13.47;100.00;100887.44;5037087;28;20056;-75
2021/12/30 05:24:57;;;;;;;18.20;7.10;;;;;;;13.46;100.00;100893.41;5027843;28;20071;-73
2021/12/30 05:27:23;;;;;;;10.68;3.70;;;;;;;13.44;100.00;100898.56;5028654;28;20071;-75
2021/12/30 05:29:50;;;;;;;12.82;4.95;;;;;;;13.42;100.00;100898.19;5031882;28;20045;-75
2021/12/30 05:32:16;;;;;;;4.90;1.92;;;;;;;13.44;100.00;100896.59;5041796;28;20394;-73
2021/12/30 05:34:43;;;;;;;6.70;3.05;;;;;;;13.43;100.00;100892.22;5036759;28;20127;-73
2021/12/30 05:37:09;;;;;;;8.32;3.45;;;;;;;13.46;100.00;100894.19;5047939;28;20045;-73
2021/12/30 05:39:40;;;;;;;7.25;3.03;;;;;;;13.47;100.00;100883.84;5028436;28;20053;-75
2021/12/30 05:42:07;;;;;;;12.88;3.90;;;;;;;13.53;100.00;100896.88;5029981;28;20120;-73
2021/12/30 05:44:34;;;;;;;8.70;3.10;;;;;;;13.53;100.00;100896.88;5036446;28;20067;-74
2021/12/30 05:47:01;;;;;;;5.13;2.30;;;;;;;13.54;100.00;100895.69;5029171;28;20502;-73
2021/12/30 05:49:27;;;;;;;8.55;3.13;;;;;;;13.52;100.00;100888.94;5046859;28;20134;-73
2021/12/30 05:51:54;;;;;;;10.63;4.30;;;;;;;13.58;100.00;100890.09;5030672;28;20051;-72
2021/12/30 05:54:20;;;;;;;11.95;4.22;;;;;;;13.56;100.00;100887.72;5028367;28;20049;-75
2021/12/30 05:56:47;;;;;;;13.80;5.30;;;;;;;13.62;100.00;100897.19;5031753;28;20059;-73
2021/12/30 05:59:13;;;;;;;12.30;4.63;;;;;;;13.59;100.00;100898.00;5038233;28;20132;-73
2021/12/30 06:01:40;;;;;;;5.05;2.50;;;;;;;13.60;100.00;100888.47;5030136;28;20509;-74
2021/12/30 06:04:06;;;;;;;7.70;2.40;;;;;;;13.59;100.00;100889.69;5039756;28;20049;-74
2021/12/30 06:06:33;;;;;;;5.50;1.92;;;;;;;13.59;100.00;100891.66;5043020;28;20056;-72
2021/12/30 06:08:59;;;;;;;11.80;4.07;;;;;;;13.66;100.00;100891.56;5029859;28;20843;-72
2021/12/30 06:11:26;;;;;;;9.77;3.30;;;;;;;13.61;100.00;100894.81;5038506;28;20053;-72
2021/12/30 06:13:52;;;;;;;6.95;2.20;;;;;;;13.62;100.00;100894.41;5043563;28;20679;-72
2021/12/30 06:16:19;;;;;;;5.88;2.22;;;;;;;13.65;100.00;100910.28;5030256;28;20071;-72
2021/12/30 06:18:45;;;;;;;7.63;2.75;;;;;;;13.62;100.00;100905.53;5029617;28;20115;-73
2021/12/30 06:21:12;;;;;;;2.75;1.05;;;;;;;13.63;100.00;100914.69;5034145;28;20064;-72
2021/12/30 06:23:38;;;;;;;0.30;0.30;;;;;;;13.64;100.00;100917.03;5032613;28;20053;-71
2021/12/30 06:26:05;;;;;;;2.17;0.95;;;;;;;13.62;100.00;100907.50;5028514;28;20140;-72
2021/12/30 06:28:31;;;;;;;10.98;3.78;;;;;;;13.68;100.00;100905.88;5036086;28;20137;-73
2021/12/30 06:30:58;;;;;;;4.10;1.73;;;;;;;13.64;100.00;100910.69;5033127;28;20596;-73
2021/12/30 06:33:24;;;;;;;4.57;1.45;;;;;;;13.68;100.00;100906.66;5033716;28;20080;-73
2021/12/30 06:35:51;;;;;;;6.90;2.22;;;;;;;13.68;100.00;100906.66;5039878;28;20064;-72
2021/12/30 06:38:18;;;;;;;9.10;3.85;;;;;;;13.73;100.00;100905.44;5040218;28;20057;-73
2021/12/30 06:40:44;;;;;;;6.57;3.20;;;;;;;13.72;100.00;100907.41;5028309;28;20092;-73
2021/12/30 06:43:11;;;;;;;12.05;5.28;;;;;;;13.78;100.00;100899.41;5032072;28;20063;-72
2021/12/30 06:45:37;;;;;;;13.00;5.68;;;;;;;13.78;100.00;100900.22;5029249;28;20052;-72
2021/12/30 06:48:06;;;;;;;8.43;3.80;;;;;;;13.80;100.00;100897.78;5031008;28;20049;-74
2021/12/30 06:50:34;;;;;;;18.00;9.07;;;;;;;13.92;100.00;100902.03;5027998;28;20069;-72
2021/12/30 06:53:00;;;;;;;8.60;3.95;;;;;;;13.87;100.00;100908.81;5051125;28;20137;-73
2021/12/30 06:55:27;;;;;;;11.57;3.80;;;;;;;13.92;100.00;100915.94;5028669;28;20049;-73
2021/12/30 06:57:54;;;;;;;24.88;8.07;;;;;;;14.01;100.00;100914.22;5030302;28;20050;-73
2021/12/30 07:00:21;;;;;;;11.90;5.50;;;;;;;14.07;100.00;100906.22;5028832;28;20481;-72
2021/12/30 07:02:48;;;;;;;17.50;7.47;;;;;;;14.14;100.00;100918.03;5036656;28;20048;-72
2021/12/30 07:05:15;;;;;;;19.77;6.55;;;;;;;14.24;100.00;100908.03;5031561;28;20086;-75
2021/12/30 07:07:43;;;;;;;24.83;11.82;;;;;;;14.24;100.00;100922.72;5033718;28;20038;-72
2021/12/30 07:10:10;;;;;;;20.02;7.38;;;;;;;14.27;100.00;100921.88;5036575;28;20080;-72
2021/12/30 07:12:37;;;;;;;17.20;6.65;;;;;;;14.33;100.00;100933.34;5033809;28;20053;-73
2021/12/30 07:15:07;;;;;;;15.00;6.88;;;;;;;14.36;100.00;100930.53;5034632;28;20075;-70
2021/12/30 07:17:34;;;;;;;11.40;5.20;;;;;;;14.40;100.00;100924.88;5031371;28;20045;-74
2021/12/30 07:20:01;;;;;;;16.73;8.25;;;;;;;14.38;100.00;100928.09;5028209;28;20510;-71
2021/12/30 07:22:28;;;;;;;23.45;11.60;;;;;;;14.47;100.00;100927.56;5029702;28;20041;-74
2021/12/30 07:25:16;;;;;;;15.70;8.13;;;;;;;14.53;100.00;100940.63;5027202;28;20500;-71
2021/12/30 07:27:52;;;;;;;16.35;7.40;;;;;;;14.49;100.00;100939.91;5025717;28;20045;-74
2021/12/30 07:30:19;;;;;;;17.50;6.70;;;;;;;14.57;100.00;100946.13;5027449;28;20057;-69
2021/12/30 07:32:47;;;;;;;15.98;6.40;;;;;;;14.57;100.00;100952.50;5026414;28;20506;-75
2021/12/30 07:35:15;;;;;;;19.30;9.68;;;;;;;14.63;100.00;100948.06;5038179;28;20109;-75
2021/12/30 07:37:42;;;;;;;19.85;11.05;;;;;;;14.63;100.00;100956.41;5042280;28;20057;-74
2021/12/30 07:40:10;;;;;;;13.30;5.63;;;;;;;14.58;100.00;100972.78;5032326;28;20056;-75
2021/12/30 07:42:36;;;;;;;15.60;6.78;;;;;;;14.61;100.00;100966.34;5034381;28;20042;-73
2021/12/30 07:45:04;;;;;;;7.60;3.72;;;;;;;14.69;100.00;100974.22;5029975;28;20059;-74
2021/12/30 07:47:31;;;;;;;16.40;7.00;;;;;;;14.63;100.00;100984.25;5031381;28;20049;-74
2021/12/30 07:49:58;;;;;;;12.35;5.28;;;;;;;14.72;100.00;100973.38;5026913;28;20425;-74
2021/12/30 07:52:25;;;;;;;10.75;4.72;;;;;;;14.69;100.00;100990.94;5028273;28;20077;-76
2021/12/30 07:54:51;;;;;;;14.85;6.72;;;;;;;14.59;100.00;100989.09;5029958;28;20471;-74
2021/12/30 07:57:21;;;;;;;9.95;4.43;;;;;;;14.71;100.00;100987.72;5029934;28;20088;-74
2021/12/30 07:59:51;;;;;;;7.78;3.15;;;;;;;14.64;100.00;100996.97;5029915;28;20059;-75
2021/12/30 08:02:19;;;;;;;8.52;3.40;;;;;;;14.65;100.00;101001.31;5027550;28;20876;-73
2021/12/30 08:04:46;;;;;;;13.27;6.22;;;;;;;14.68;100.00;100997.69;5029692;28;20056;-75
2021/12/30 08:07:13;;;;;;;14.45;6.72;;;;;;;14.61;100.00;100986.66;5029435;28;20103;-75
2021/12/30 08:09:40;;;;;;;8.18;3.92;;;;;;;14.63;100.00;101000.97;5039254;28;20073;-74
2021/12/30 08:12:07;;;;;;;10.68;4.80;;;;;;;14.61;100.00;101005.34;5030038;28;20526;-74
2021/12/30 08:14:33;;;;;;;15.05;7.47;;;;;;;14.62;100.00;101006.94;5031442;28;20076;-74
2021/12/30 08:17:00;;;;;;;8.38;4.18;;;;;;;14.67;100.00;100998.91;5031585;28;20049;-75
2021/12/30 08:19:31;;;;;;;13.50;4.22;;;;;;;14.69;100.00;101009.63;5034768;28;20046;-78
2021/12/30 08:21:58;;;;;;;11.25;5.05;;;;;;;14.69;100.00;101004.06;5033742;28;20051;-75
2021/12/30 08:24:24;;;;;;;13.93;6.53;;;;;;;14.66;100.00;101022.41;5033267;28;20555;-75
2021/12/30 08:27:12;;;;;;;19.63;9.75;;;;;;;14.75;100.00;101007.97;5030959;28;20060;-76
2021/12/30 08:29:38;;;;;;;11.32;5.32;;;;;;;14.74;100.00;101009.97;5034535;28;20045;-75
2021/12/30 08:32:08;;;;;;;6.88;3.30;;;;;;;14.73;100.00;101005.59;5031339;28;20052;-76
2021/12/30 08:34:34;;;;;;;17.02;8.23;;;;;;;14.81;100.00;101007.06;5036372;28;20044;-75
2021/12/30 08:37:01;;;;;;;6.90;3.78;;;;;;;14.73;100.00;101024.31;5038945;28;20073;-76
2021/12/30 08:39:28;;;;;;;6.32;3.67;;;;;;;14.79;100.00;101011.50;5038491;28;20108;-74
2021/12/30 08:41:58;;;;;;;12.50;5.35;;;;;;;14.76;100.00;101004.78;5029256;28;20053;-74
2021/12/30 08:44:26;;;;;;;15.30;7.57;;;;;;;14.87;100.00;101010.97;5043187;28;20053;-78
2021/12/30 08:46:53;;;;;;;12.07;5.82;;;;;;;14.83;100.00;101021.38;5034402;28;20053;-75
2021/12/30 08:49:20;;;;;;;13.50;6.95;;;;;;;14.83;100.00;101023.38;5031649;28;20053;-75
2021/12/30 08:51:47;;;;;;;11.23;4.97;;;;;;;14.79;100.00;101034.53;5030303;28;20064;-76
2021/12/30 08:54:14;;;;;;;9.95;4.57;;;;;;;14.75;100.00;101033.03;5030052;28;20144;-75
2021/12/30 08:56:42;;;;;;;12.95;5.78;;;;;;;14.68;100.00;101033.91;5031740;28;20476;-77
2021/12/30 08:59:08;;;;;;;9.68;4.30;;;;;;;14.71;100.00;101047.00;5039544;28;20053;-75
2021/12/30 09:01:35;;;;;;;8.82;3.53;;;;;;;14.69;100.00;101041.06;5027940;28;20049;-77
2021/12/30 09:04:03;;;;;;;9.77;4.30;;;;;;;14.68;100.00;101039.47;5037308;28;20049;-76
2021/12/30 09:06:30;;;;;;;10.23;5.25;;;;;;;14.64;100.00;101055.44;5035358;28;20136;-76
2021/12/30 09:08:56;;;;;;;11.82;5.45;;;;;;;14.70;100.00;101061.34;5038674;28;20065;-76
2021/12/30 09:11:23;;;;;;;9.68;3.75;;;;;;;14.65;100.00;101067.38;5033139;28;20184;-74
2021/12/30 09:13:49;;;;;;;12.50;6.50;;;;;;;14.63;100.00;101053.06;5029024;28;20060;-77
2021/12/30 09:16:16;;;;;;;15.80;7.60;;;;;;;14.57;100.00;101063.88;5030425;28;20045;-76
2021/12/30 09:18:43;;;;;;;9.80;4.38;;;;;;;14.60;100.00;101063.06;5032863;28;20090;-72
2021/12/30 09:21:09;;;;;;;15.65;7.18;;;;;;;14.67;100.00;101054.63;5031361;28;20487;-74
2021/12/30 09:23:36;;;;;;;7.80;4.10;;;;;;;14.64;100.00;101052.66;5034635;28;20047;-77
2021/12/30 09:26:02;;;;;;;14.05;5.95;;;;;;;14.67;100.00;101059.38;5033362;28;20126;-76
2021/12/30 09:28:29;;;;;;;12.43;4.22;;;;;;;14.70;100.00;101078.84;5029374;28;20049;-74
2021/12/30 09:30:55;;;;;;;7.15;3.42;;;;;;;14.75;100.00;101072.81;5027060;28;20300;-77
2021/12/30 09:33:23;;;;;;;8.98;3.72;;;;;;;14.73;100.00;101069.66;5027785;28;20590;-76
2021/12/30 09:35:50;;;;;;;14.60;7.07;;;;;;;14.83;100.00;101060.38;5037321;28;20049;-75
2021/12/30 09:38:18;;;;;;;10.63;4.70;;;;;;;14.81;100.00;101082.28;5036426;28;20056;-75
2021/12/30 09:40:45;;;;;;;20.08;8.93;;;;;;;14.92;100.00;101071.03;5029684;28;20452;-77
2021/12/30 09:43:13;;;;;;;13.63;5.68;;;;;;;14.90;100.00;101074.22;5036875;28;20724;-74
2021/12/30 09:45:41;;;;;;;8.20;3.58;;;;;;;14.89;100.00;101078.19;5028792;28;20080;-77
2021/12/30 09:48:12;;;;;;;9.15;3.55;;;;;;;15.00;100.00;101081.66;5030715;28;20046;-78
2021/12/30 09:50:44;;;;;;;8.27;3.50;;;;;;;14.98;100.00;101080.47;5026943;28;20085;-78
2021/12/30 09:53:11;;;;;;;14.73;5.43;;;;;;;14.97;100.00;101051.84;5033944;28;20045;-73
2021/12/30 09:55:38;;;;;;;10.25;4.15;;;;;;;15.05;100.00;101085.94;5026485;28;20049;-77
2021/12/30 09:58:06;;;;;;;10.90;4.20;;;;;;;15.19;100.00;101063.47;5036492;28;20063;-75
2021/12/30 10:00:34;;;;;;;16.45;3.60;;;;;;;15.15;100.00;101062.72;5014476;28;20140;-77
2021/12/30 10:03:00;;;;;;;14.02;5.43;;;;;;;15.27;100.00;101068.53;5012839;28;20077;-75
2021/12/30 10:05:31;;;;;;;9.18;4.18;;;;;;;15.22;100.00;101066.19;5031934;28;20057;-74
2021/12/30 10:08:18;;;;;;;11.90;4.90;;;;;;;15.24;100.00;101063.78;5025380;28;20065;-76
2021/12/30 10:10:48;;;;;;;9.07;3.65;;;;;;;15.29;100.00;101068.88;5034994;28;20528;-76
2021/12/30 10:13:17;;;;;;;9.05;3.63;;;;;;;15.34;100.00;101068.44;5027501;28;20047;-74
2021/12/30 10:15:47;;;;;;;7.45;3.03;;;;;;;15.40;100.00;101065.97;5034488;28;20102;-76
2021/12/30 10:18:14;;;;;;;9.60;3.72;;;;;;;15.38;100.00;101076.75;5032016;28;20122;-76
2021/12/30 10:20:42;;;;;;;7.43;3.03;;;;;;;15.46;100.00;101087.38;5027502;28;20049;-73
2021/12/30 10:23:11;;;;;;;9.10;3.88;;;;;;;15.42;100.00;101092.22;5025858;28;20050;-72
2021/12/30 10:25:42;;;;;;;8.65;3.72;;;;;;;15.44;100.00;101089.81;5027909;28;20059;-71
2021/12/30 10:28:26;;;;;;;8.07;3.28;;;;;;;15.49;100.00;101092.13;5030223;28;20056;-74
2021/12/30 10:31:01;;;;;;;11.95;3.95;;;;;;;15.46;100.00;101084.59;5028036;28;20067;-74
2021/12/30 10:33:29;;;;;;;10.27;5.25;;;;;;;15.60;100.00;101096.75;5028436;28;20127;-73
2021/12/30 10:35:57;;;;;;;7.57;2.75;;;;;;;15.48;100.00;101084.97;5048104;28;20809;-72
2021/12/30 10:38:28;;;;;;;6.95;3.05;;;;;;;15.43;100.00;101098.59;5037615;28;20077;-72
2021/12/30 10:41:00;;;;;;;6.38;2.88;;;;;;;15.51;100.00;101094.47;5028575;28;20057;-72
2021/12/30 10:43:37;;;;;;;7.63;3.08;;;;;;;15.54;100.00;101099.22;5032843;28;20052;-72
2021/12/30 10:46:08;;;;;;;10.35;3.83;;;;;;;15.61;100.00;101098.31;5028457;28;20566;-72
2021/12/30 10:48:52;;;;;;;10.15;3.15;;;;;;;15.52;100.00;101095.28;5028939;28;20053;-72
2021/12/30 10:51:20;;;;;;;6.22;2.42;;;;;;;15.57;100.00;101103.16;5028672;28;20045;-72
2021/12/30 10:53:49;;;;;;;3.28;2.13;;;;;;;15.59;100.00;101086.81;5034162;28;20814;-70
2021/12/30 10:56:18;;;;;;;3.58;2.10;;;;;;;15.62;100.00;101089.53;5036628;28;20128;-71
2021/12/30 10:58:45;;;;;;;7.85;3.22;;;;;;;15.67;100.00;101089.06;5026856;28;20140;-72
2021/12/30 11:01:19;;;;;;;3.40;1.75;;;;;;;15.63;100.00;101093.91;5026849;28;20136;-73
2021/12/30 11:04:00;;;;;;;6.68;2.72;;;;;;;15.71;100.00;101089.78;5046633;28;20052;-72
2021/12/30 11:06:27;;;;;;;6.00;2.30;;;;;;;15.73;100.00;101094.94;5036127;28;20068;-71
2021/12/30 11:09:09;;;;;;;6.13;2.25;;;;;;;15.84;100.00;101107.50;5038870;28;20061;-75
2021/12/30 11:11:39;;;;;;;4.22;1.90;;;;;;;15.81;100.00;101110.34;5029080;28;20045;-72
2021/12/30 11:14:07;;;;;;;5.32;2.17;;;;;;;15.84;100.00;101134.63;5041404;28;20132;-72